EmailTwitter


Surface observations / United Kingdom / EGLL (03772)

Regions: Quebec | Canada | USA | Europe | France | UK | Elsewhere
Station
Display
Info & Location for EGLL (03772) | Help decoding METAR

Weather Conditions observed on 2018/05/28 at 04:20 UTC at LONDON/HEATHROW, UK (EGLL)

Obstruction(s) to Vision: haze.

Temperature: 16.0 Celsius.

Dewpoint: 15.0 Celsius.

Relative Humidity: 94%

Humidex: 20.

Winds: Northeast at 7 km/h or 4 knots.

Mean Sea level Pressure: 101.70 kilopascals.

Horizontal visibility: 1.12 statute miles or 1.79 kilometers.

Coded METAR:

EGLL 280420Z AUTO 04004KT 350V090 1800 HZ NCD 16/15 Q1017 NOSIG=